Terminal Aerodrome Forecast
Issued by NWS

Home | Current Version | Previous Version | Text Only | Print | Product List | Glossary On
Versions: 1 2 3 4 5 6 7 8 9 10 11 12 13 14 15
000
FTUS42 KTAE 040244 AAA
TAFABY
TAF AMD
KABY 040244Z 0403/0424 25004KT P6SM TS BKN040CB
      TEMPO 0403/0404 27020G35KT 2SM +TSRAGR BKN025CB
     FM040400 28003KT P6SM BKN040
     FM041200 32010KT P6SM SCT040=

USA.gov is the U.S. government's official web portal to all federal, state and local government web resources and services.